sensor_id;sensor_type;location;lat;lon;timestamp;P1;durP1;ratioP1;P2;durP2;ratioP2
36651;SDS011;53334;51.976;20.144;2023-11-19T00:00:09;14.80;;;9.48;;
36651;SDS011;53334;51.976;20.144;2023-11-19T00:02:45;14.10;;;9.70;;
36651;SDS011;53334;51.976;20.144;2023-11-19T00:05:19;13.10;;;9.90;;
36651;SDS011;53334;51.976;20.144;2023-11-19T00:07:52;11.93;;;9.20;;
36651;SDS011;53334;51.976;20.144;2023-11-19T00:10:26;13.43;;;9.63;;
36651;SDS011;53334;51.976;20.144;2023-11-19T00:12:59;11.38;;;9.57;;
36651;SDS011;53334;51.976;20.144;2023-11-19T00:15:34;15.23;;;10.90;;
36651;SDS011;53334;51.976;20.144;2023-11-19T00:18:07;12.20;;;9.38;;
36651;SDS011;53334;51.976;20.144;2023-11-19T00:20:40;11.82;;;9.02;;
36651;SDS011;53334;51.976;20.144;2023-11-19T00:23:16;10.82;;;8.50;;
36651;SDS011;53334;51.976;20.144;2023-11-19T00:25:50;13.85;;;9.77;;
36651;SDS011;53334;51.976;20.144;2023-11-19T00:28:23;16.85;;;10.48;;
36651;SDS011;53334;51.976;20.144;2023-11-19T00:30:57;18.35;;;12.27;;
36651;SDS011;53334;51.976;20.144;2023-11-19T00:33:30;21.38;;;10.70;;
36651;SDS011;53334;51.976;20.144;2023-11-19T00:36:04;14.98;;;11.18;;
36651;SDS011;53334;51.976;20.144;2023-11-19T00:38:38;13.57;;;11.23;;
36651;SDS011;53334;51.976;20.144;2023-11-19T00:41:12;23.60;;;11.63;;
36651;SDS011;53334;51.976;20.144;2023-11-19T00:43:47;14.23;;;11.02;;
36651;SDS011;53334;51.976;20.144;2023-11-19T00:46:20;14.55;;;10.05;;
36651;SDS011;53334;51.976;20.144;2023-11-19T00:48:53;15.70;;;11.20;;
36651;SDS011;53334;51.976;20.144;2023-11-19T00:51:27;14.38;;;10.65;;
36651;SDS011;53334;51.976;20.144;2023-11-19T08:12:13;9.98;;;7.97;;
36651;SDS011;53334;51.976;20.144;2023-11-19T08:14:47;11.27;;;8.35;;
36651;SDS011;53334;51.976;20.144;2023-11-19T08:17:20;9.13;;;8.23;;
36651;SDS011;53334;51.976;20.144;2023-11-19T08:19:54;10.02;;;8.52;;
36651;SDS011;53334;51.976;20.144;2023-11-19T08:22:27;9.20;;;8.30;;
36651;SDS011;53334;51.976;20.144;2023-11-19T08:25:01;9.68;;;8.60;;
36651;SDS011;53334;51.976;20.144;2023-11-19T08:27:35;11.32;;;8.65;;
36651;SDS011;53334;51.976;20.144;2023-11-19T08:30:09;10.65;;;8.65;;
36651;SDS011;53334;51.976;20.144;2023-11-19T08:32:42;10.23;;;8.02;;
36651;SDS011;53334;51.976;20.144;2023-11-19T08:35:16;12.00;;;9.45;;
36651;SDS011;53334;51.976;20.144;2023-11-19T08:37:49;14.70;;;8.40;;
36651;SDS011;53334;51.976;20.144;2023-11-19T08:40:23;16.92;;;9.20;;
36651;SDS011;53334;51.976;20.144;2023-11-19T08:42:58;21.27;;;8.63;;
36651;SDS011;53334;51.976;20.144;2023-11-19T08:45:32;14.13;;;9.38;;
36651;SDS011;53334;51.976;20.144;2023-11-19T08:48:05;12.13;;;8.90;;
36651;SDS011;53334;51.976;20.144;2023-11-19T08:50:38;12.50;;;8.90;;
36651;SDS011;53334;51.976;20.144;2023-11-19T08:53:11;17.45;;;9.25;;
36651;SDS011;53334;51.976;20.144;2023-11-19T08:55:45;10.00;;;7.65;;
36651;SDS011;53334;51.976;20.144;2023-11-19T08:58:19;12.10;;;8.93;;
36651;SDS011;53334;51.976;20.144;2023-11-19T09:00:53;15.50;;;9.25;;
36651;SDS011;53334;51.976;20.144;2023-11-19T09:03:26;17.38;;;9.43;;
36651;SDS011;53334;51.976;20.144;2023-11-19T09:06:02;16.92;;;8.07;;
36651;SDS011;53334;51.976;20.144;2023-11-19T09:08:35;13.13;;;9.15;;
36651;SDS011;53334;51.976;20.144;2023-11-19T09:11:09;19.90;;;10.15;;
36651;SDS011;53334;51.976;20.144;2023-11-19T09:13:44;16.08;;;9.70;;
36651;SDS011;53334;51.976;20.144;2023-11-19T09:16:17;14.25;;;10.02;;
36651;SDS011;53334;51.976;20.144;2023-11-19T09:18:50;16.27;;;9.80;;
36651;SDS011;53334;51.976;20.144;2023-11-19T09:21:24;14.93;;;9.85;;
36651;SDS011;53334;51.976;20.144;2023-11-19T09:23:57;17.23;;;9.60;;
36651;SDS011;53334;51.976;20.144;2023-11-19T09:26:30;17.25;;;10.07;;
36651;SDS011;53334;51.976;20.144;2023-11-19T09:29:10;14.48;;;10.38;;
36651;SDS011;53334;51.976;20.144;2023-11-19T09:31:46;18.98;;;10.82;;
36651;SDS011;53334;51.976;20.144;2023-11-19T09:36:52;14.98;;;9.23;;
36651;SDS011;53334;51.976;20.144;2023-11-19T09:39:25;24.52;;;9.75;;
36651;SDS011;53334;51.976;20.144;2023-11-19T09:41:59;19.33;;;10.93;;
36651;SDS011;53334;51.976;20.144;2023-11-19T09:44:33;19.55;;;16.40;;
36651;SDS011;53334;51.976;20.144;2023-11-19T09:47:07;27.20;;;20.75;;
36651;SDS011;53334;51.976;20.144;2023-11-19T09:52:14;22.85;;;16.67;;
36651;SDS011;53334;51.976;20.144;2023-11-19T09:54:47;25.73;;;18.63;;
36651;SDS011;53334;51.976;20.144;2023-11-19T09:57:21;24.05;;;18.13;;
36651;SDS011;53334;51.976;20.144;2023-11-19T09:59:57;20.58;;;14.80;;
36651;SDS011;53334;51.976;20.144;2023-11-19T10:02:31;25.60;;;17.27;;
36651;SDS011;53334;51.976;20.144;2023-11-19T10:05:08;22.00;;;16.50;;
36651;SDS011;53334;51.976;20.144;2023-11-19T10:07:46;26.98;;;15.10;;
36651;SDS011;53334;51.976;20.144;2023-11-19T10:10:21;21.05;;;15.75;;
36651;SDS011;53334;51.976;20.144;2023-11-19T10:12:54;18.95;;;14.60;;
36651;SDS011;53334;51.976;20.144;2023-11-19T10:15:31;24.98;;;15.18;;
36651;SDS011;53334;51.976;20.144;2023-11-19T10:18:08;24.42;;;14.20;;
36651;SDS011;53334;51.976;20.144;2023-11-19T10:20:41;19.33;;;13.77;;
36651;SDS011;53334;51.976;20.144;2023-11-19T10:25:49;23.80;;;14.75;;
36651;SDS011;53334;51.976;20.144;2023-11-19T10:28:25;26.08;;;15.02;;
36651;SDS011;53334;51.976;20.144;2023-11-19T10:31:00;20.73;;;13.50;;
36651;SDS011;53334;51.976;20.144;2023-11-19T10:33:33;22.80;;;14.13;;
36651;SDS011;53334;51.976;20.144;2023-11-19T10:38:41;22.50;;;13.52;;
36651;SDS011;53334;51.976;20.144;2023-11-19T10:41:27;23.40;;;14.60;;
36651;SDS011;53334;51.976;20.144;2023-11-19T10:44:01;22.63;;;14.23;;
36651;SDS011;53334;51.976;20.144;2023-11-19T10:46:39;22.35;;;11.90;;
36651;SDS011;53334;51.976;20.144;2023-11-19T10:49:13;20.55;;;13.27;;
36651;SDS011;53334;51.976;20.144;2023-11-19T10:51:46;22.73;;;12.90;;
36651;SDS011;53334;51.976;20.144;2023-11-19T10:56:54;21.77;;;12.93;;
36651;SDS011;53334;51.976;20.144;2023-11-19T10:59:31;21.35;;;13.20;;
36651;SDS011;53334;51.976;20.144;2023-11-19T11:02:07;28.27;;;12.73;;
36651;SDS011;53334;51.976;20.144;2023-11-19T11:04:47;27.38;;;13.73;;
36651;SDS011;53334;51.976;20.144;2023-11-19T11:07:22;21.35;;;12.52;;
36651;SDS011;53334;51.976;20.144;2023-11-19T11:10:07;21.77;;;13.10;;
36651;SDS011;53334;51.976;20.144;2023-11-19T11:12:41;25.92;;;13.27;;
36651;SDS011;53334;51.976;20.144;2023-11-19T11:15:16;21.05;;;12.70;;
36651;SDS011;53334;51.976;20.144;2023-11-19T11:17:53;23.25;;;12.82;;
36651;SDS011;53334;51.976;20.144;2023-11-19T11:20:32;19.67;;;12.82;;
36651;SDS011;53334;51.976;20.144;2023-11-19T11:23:22;17.95;;;11.50;;
36651;SDS011;53334;51.976;20.144;2023-11-19T11:26:13;25.73;;;11.32;;
36651;SDS011;53334;51.976;20.144;2023-11-19T11:28:59;26.48;;;12.48;;
36651;SDS011;53334;51.976;20.144;2023-11-19T11:31:36;24.52;;;10.48;;
36651;SDS011;53334;51.976;20.144;2023-11-19T11:37:19;21.10;;;10.82;;
36651;SDS011;53334;51.976;20.144;2023-11-19T11:39:57;28.05;;;11.18;;
36651;SDS011;53334;51.976;20.144;2023-11-19T11:42:34;18.27;;;10.20;;
36651;SDS011;53334;51.976;20.144;2023-11-19T11:45:08;30.35;;;11.63;;
36651;SDS011;53334;51.976;20.144;2023-11-19T11:50:47;36.20;;;10.90;;
36651;SDS011;53334;51.976;20.144;2023-11-19T11:53:30;31.30;;;10.57;;
36651;SDS011;53334;51.976;20.144;2023-11-19T11:56:07;28.20;;;10.27;;
36651;SDS011;53334;51.976;20.144;2023-11-19T11:58:40;18.02;;;11.10;;
36651;SDS011;53334;51.976;20.144;2023-11-19T12:01:16;27.75;;;11.45;;
36651;SDS011;53334;51.976;20.144;2023-11-19T12:03:52;37.60;;;14.32;;
36651;SDS011;53334;51.976;20.144;2023-11-19T12:06:28;52.50;;;25.45;;
36651;SDS011;53334;51.976;20.144;2023-11-19T12:09:03;62.38;;;39.17;;
36651;SDS011;53334;51.976;20.144;2023-11-19T12:11:38;76.95;;;46.85;;
36651;SDS011;53334;51.976;20.144;2023-11-19T12:14:19;81.65;;;55.13;;
36651;SDS011;53334;51.976;20.144;2023-11-19T12:20:26;112.82;;;80.95;;
36651;SDS011;53334;51.976;20.144;2023-11-19T12:23:05;127.72;;;86.45;;
36651;SDS011;53334;51.976;20.144;2023-11-19T12:25:41;149.57;;;95.28;;
36651;SDS011;53334;51.976;20.144;2023-11-19T12:28:16;163.95;;;112.20;;
36651;SDS011;53334;51.976;20.144;2023-11-19T12:30:50;178.82;;;121.80;;
36651;SDS011;53334;51.976;20.144;2023-11-19T12:33:25;180.43;;;124.90;;
36651;SDS011;53334;51.976;20.144;2023-11-19T12:35:58;186.05;;;129.18;;
36651;SDS011;53334;51.976;20.144;2023-11-19T12:38:36;168.07;;;121.22;;
36651;SDS011;53334;51.976;20.144;2023-11-19T12:41:11;173.88;;;117.50;;
36651;SDS011;53334;51.976;20.144;2023-11-19T12:43:45;149.75;;;102.28;;
36651;SDS011;53334;51.976;20.144;2023-11-19T12:46:21;153.10;;;104.55;;
36651;SDS011;53334;51.976;20.144;2023-11-19T12:48:55;139.98;;;97.97;;
36651;SDS011;53334;51.976;20.144;2023-11-19T12:51:30;122.03;;;87.63;;
36651;SDS011;53334;51.976;20.144;2023-11-19T12:54:04;120.28;;;86.32;;
36651;SDS011;53334;51.976;20.144;2023-11-19T12:56:39;118.80;;;87.45;;
36651;SDS011;53334;51.976;20.144;2023-11-19T12:59:13;124.60;;;86.00;;
36651;SDS011;53334;51.976;20.144;2023-11-19T13:01:53;150.70;;;101.88;;
36651;SDS011;53334;51.976;20.144;2023-11-19T13:04:27;175.65;;;118.70;;
36651;SDS011;53334;51.976;20.144;2023-11-19T13:07:02;179.18;;;118.82;;
36651;SDS011;53334;51.976;20.144;2023-11-19T13:09:37;177.05;;;123.57;;
36651;SDS011;53334;51.976;20.144;2023-11-19T13:12:15;185.90;;;121.30;;
36651;SDS011;53334;51.976;20.144;2023-11-19T13:14:50;187.13;;;120.95;;
36651;SDS011;53334;51.976;20.144;2023-11-19T13:17:25;189.50;;;121.53;;
36651;SDS011;53334;51.976;20.144;2023-11-19T13:19:59;197.45;;;126.30;;
36651;SDS011;53334;51.976;20.144;2023-11-19T13:22:32;203.13;;;122.78;;
36651;SDS011;53334;51.976;20.144;2023-11-19T13:25:06;197.73;;;126.57;;
36651;SDS011;53334;51.976;20.144;2023-11-19T13:30:14;211.68;;;128.70;;
36651;SDS011;53334;51.976;20.144;2023-11-19T13:32:51;211.20;;;132.63;;
36651;SDS011;53334;51.976;20.144;2023-11-19T13:35:27;210.05;;;130.98;;
36651;SDS011;53334;51.976;20.144;2023-11-19T13:40:34;189.20;;;123.75;;
36651;SDS011;53334;51.976;20.144;2023-11-19T13:43:09;179.50;;;120.13;;
36651;SDS011;53334;51.976;20.144;2023-11-19T13:45:43;163.30;;;108.28;;
36651;SDS011;53334;51.976;20.144;2023-11-19T13:48:16;165.73;;;106.82;;
36651;SDS011;53334;51.976;20.144;2023-11-19T13:50:49;158.55;;;102.15;;
36651;SDS011;53334;51.976;20.144;2023-11-19T13:53:23;159.73;;;100.57;;
36651;SDS011;53334;51.976;20.144;2023-11-19T13:55:56;147.13;;;96.40;;
36651;SDS011;53334;51.976;20.144;2023-11-19T13:58:31;146.05;;;94.68;;
36651;SDS011;53334;51.976;20.144;2023-11-19T14:01:04;141.00;;;90.53;;
36651;SDS011;53334;51.976;20.144;2023-11-19T14:03:38;143.48;;;90.28;;
36651;SDS011;53334;51.976;20.144;2023-11-19T14:06:12;145.70;;;92.55;;
36651;SDS011;53334;51.976;20.144;2023-11-19T14:08:46;138.73;;;89.10;;
36651;SDS011;53334;51.976;20.144;2023-11-19T14:11:19;137.68;;;89.97;;
36651;SDS011;53334;51.976;20.144;2023-11-19T14:13:53;142.80;;;91.45;;
36651;SDS011;53334;51.976;20.144;2023-11-19T14:16:27;135.43;;;87.72;;
36651;SDS011;53334;51.976;20.144;2023-11-19T14:19:00;150.63;;;91.80;;
36651;SDS011;53334;51.976;20.144;2023-11-19T14:21:34;147.75;;;85.72;;
36651;SDS011;53334;51.976;20.144;2023-11-19T14:24:07;137.63;;;83.63;;
36651;SDS011;53334;51.976;20.144;2023-11-19T14:26:41;129.52;;;83.65;;
36651;SDS011;53334;51.976;20.144;2023-11-19T14:29:15;136.15;;;83.88;;
36651;SDS011;53334;51.976;20.144;2023-11-19T14:31:48;122.68;;;80.20;;
36651;SDS011;53334;51.976;20.144;2023-11-19T14:34:21;137.95;;;79.65;;
36651;SDS011;53334;51.976;20.144;2023-11-19T14:36:56;124.22;;;75.60;;
36651;SDS011;53334;51.976;20.144;2023-11-19T14:39:29;117.88;;;75.10;;
36651;SDS011;53334;51.976;20.144;2023-11-19T14:44:40;103.45;;;65.75;;
36651;SDS011;53334;51.976;20.144;2023-11-19T14:47:13;117.45;;;73.25;;
36651;SDS011;53334;51.976;20.144;2023-11-19T14:49:47;110.18;;;67.53;;
36651;SDS011;53334;51.976;20.144;2023-11-19T14:52:21;116.57;;;69.38;;
36651;SDS011;53334;51.976;20.144;2023-11-19T14:54:56;114.82;;;65.10;;
36651;SDS011;53334;51.976;20.144;2023-11-19T14:57:30;95.50;;;66.43;;
36651;SDS011;53334;51.976;20.144;2023-11-19T15:00:04;98.90;;;65.28;;
36651;SDS011;53334;51.976;20.144;2023-11-19T15:02:44;97.97;;;63.53;;
36651;SDS011;53334;51.976;20.144;2023-11-19T15:05:18;101.60;;;60.67;;
36651;SDS011;53334;51.976;20.144;2023-11-19T15:07:51;97.35;;;59.20;;
36651;SDS011;53334;51.976;20.144;2023-11-19T15:10:25;93.57;;;59.03;;
36651;SDS011;53334;51.976;20.144;2023-11-19T15:12:58;93.80;;;60.00;;
36651;SDS011;53334;51.976;20.144;2023-11-19T15:18:07;85.15;;;54.13;;
36651;SDS011;53334;51.976;20.144;2023-11-19T15:20:41;79.45;;;52.25;;
36651;SDS011;53334;51.976;20.144;2023-11-19T15:23:18;80.22;;;51.85;;
36651;SDS011;53334;51.976;20.144;2023-11-19T15:25:51;80.03;;;51.83;;
36651;SDS011;53334;51.976;20.144;2023-11-19T15:28:24;73.68;;;50.80;;
36651;SDS011;53334;51.976;20.144;2023-11-19T15:31:01;74.00;;;49.58;;
36651;SDS011;53334;51.976;20.144;2023-11-19T15:33:35;74.53;;;49.10;;
36651;SDS011;53334;51.976;20.144;2023-11-19T15:36:08;69.97;;;46.92;;
36651;SDS011;53334;51.976;20.144;2023-11-19T15:38:41;67.82;;;45.63;;
36651;SDS011;53334;51.976;20.144;2023-11-19T15:41:18;73.65;;;46.10;;
36651;SDS011;53334;51.976;20.144;2023-11-19T15:43:51;64.45;;;43.05;;
36651;SDS011;53334;51.976;20.144;2023-11-19T15:46:27;68.93;;;42.90;;
36651;SDS011;53334;51.976;20.144;2023-11-19T15:49:00;62.88;;;42.42;;
36651;SDS011;53334;51.976;20.144;2023-11-19T15:51:34;67.35;;;42.75;;
36651;SDS011;53334;51.976;20.144;2023-11-19T15:54:07;67.07;;;41.67;;
36651;SDS011;53334;51.976;20.144;2023-11-19T15:56:40;61.88;;;39.28;;
36651;SDS011;53334;51.976;20.144;2023-11-19T15:59:13;60.58;;;40.03;;
36651;SDS011;53334;51.976;20.144;2023-11-19T16:01:47;55.53;;;37.25;;
36651;SDS011;53334;51.976;20.144;2023-11-19T16:04:21;49.15;;;35.97;;
36651;SDS011;53334;51.976;20.144;2023-11-19T16:06:54;50.20;;;36.42;;
36651;SDS011;53334;51.976;20.144;2023-11-19T16:09:28;52.92;;;35.33;;
36651;SDS011;53334;51.976;20.144;2023-11-19T16:12:02;53.60;;;35.97;;
36651;SDS011;53334;51.976;20.144;2023-11-19T16:14:35;48.78;;;34.40;;
36651;SDS011;53334;51.976;20.144;2023-11-19T16:17:11;44.70;;;33.47;;
36651;SDS011;53334;51.976;20.144;2023-11-19T16:19:44;48.60;;;33.25;;
36651;SDS011;53334;51.976;20.144;2023-11-19T16:22:17;48.35;;;32.42;;
36651;SDS011;53334;51.976;20.144;2023-11-19T16:24:54;50.53;;;33.83;;
36651;SDS011;53334;51.976;20.144;2023-11-19T16:27:28;49.45;;;33.47;;
36651;SDS011;53334;51.976;20.144;2023-11-19T16:30:01;45.08;;;31.13;;
36651;SDS011;53334;51.976;20.144;2023-11-19T16:32:48;43.47;;;30.23;;
36651;SDS011;53334;51.976;20.144;2023-11-19T16:35:25;41.08;;;28.42;;
36651;SDS011;53334;51.976;20.144;2023-11-19T16:38:04;45.13;;;30.95;;
36651;SDS011;53334;51.976;20.144;2023-11-19T16:40:37;57.30;;;32.05;;
36651;SDS011;53334;51.976;20.144;2023-11-19T16:45:44;45.42;;;30.92;;
36651;SDS011;53334;51.976;20.144;2023-11-19T16:48:19;44.88;;;29.45;;
36651;SDS011;53334;51.976;20.144;2023-11-19T16:50:52;46.40;;;28.50;;
36651;SDS011;53334;51.976;20.144;2023-11-19T16:53:28;43.03;;;30.80;;
36651;SDS011;53334;51.976;20.144;2023-11-19T16:56:01;42.97;;;29.02;;
36651;SDS011;53334;51.976;20.144;2023-11-19T16:58:34;43.55;;;27.88;;
36651;SDS011;53334;51.976;20.144;2023-11-19T17:01:08;43.90;;;26.92;;
36651;SDS011;53334;51.976;20.144;2023-11-19T17:06:16;45.22;;;27.55;;
36651;SDS011;53334;51.976;20.144;2023-11-19T17:08:50;43.17;;;28.00;;
36651;SDS011;53334;51.976;20.144;2023-11-19T17:11:23;40.88;;;27.20;;
36651;SDS011;53334;51.976;20.144;2023-11-19T17:13:56;43.65;;;24.73;;
36651;SDS011;53334;51.976;20.144;2023-11-19T17:16:30;39.50;;;24.17;;
36651;SDS011;53334;51.976;20.144;2023-11-19T17:19:05;37.08;;;23.90;;
36651;SDS011;53334;51.976;20.144;2023-11-19T17:21:38;39.58;;;24.05;;
36651;SDS011;53334;51.976;20.144;2023-11-19T17:24:11;42.28;;;24.65;;
36651;SDS011;53334;51.976;20.144;2023-11-19T17:26:45;40.53;;;22.90;;
36651;SDS011;53334;51.976;20.144;2023-11-19T17:29:18;36.33;;;22.77;;
36651;SDS011;53334;51.976;20.144;2023-11-19T17:31:53;36.67;;;23.13;;
36651;SDS011;53334;51.976;20.144;2023-11-19T17:34:27;43.78;;;21.55;;
36651;SDS011;53334;51.976;20.144;2023-11-19T17:37:01;41.10;;;23.10;;
36651;SDS011;53334;51.976;20.144;2023-11-19T17:39:35;36.65;;;22.75;;
36651;SDS011;53334;51.976;20.144;2023-11-19T17:42:08;34.15;;;21.73;;
36651;SDS011;53334;51.976;20.144;2023-11-19T17:44:41;34.33;;;20.90;;
36651;SDS011;53334;51.976;20.144;2023-11-19T17:49:49;34.88;;;21.00;;
36651;SDS011;53334;51.976;20.144;2023-11-19T17:52:23;33.25;;;19.83;;
36651;SDS011;53334;51.976;20.144;2023-11-19T17:54:57;31.88;;;20.75;;
36651;SDS011;53334;51.976;20.144;2023-11-19T17:57:31;27.48;;;18.98;;
36651;SDS011;53334;51.976;20.144;2023-11-19T18:00:05;32.80;;;19.30;;
36651;SDS011;53334;51.976;20.144;2023-11-19T18:02:42;31.40;;;19.13;;
36651;SDS011;53334;51.976;20.144;2023-11-19T18:05:18;37.17;;;20.38;;
36651;SDS011;53334;51.976;20.144;2023-11-19T18:07:53;29.00;;;20.48;;
36651;SDS011;53334;51.976;20.144;2023-11-19T18:13:00;32.33;;;18.20;;
36651;SDS011;53334;51.976;20.144;2023-11-19T18:15:34;38.65;;;19.58;;
36651;SDS011;53334;51.976;20.144;2023-11-19T18:18:08;29.40;;;19.10;;
36651;SDS011;53334;51.976;20.144;2023-11-19T18:20:43;31.38;;;18.15;;
36651;SDS011;53334;51.976;20.144;2023-11-19T18:23:16;27.70;;;17.27;;
36651;SDS011;53334;51.976;20.144;2023-11-19T18:25:49;24.83;;;17.33;;
36651;SDS011;53334;51.976;20.144;2023-11-19T18:28:23;26.88;;;17.58;;
36651;SDS011;53334;51.976;20.144;2023-11-19T18:30:59;23.42;;;16.73;;
36651;SDS011;53334;51.976;20.144;2023-11-19T18:33:32;30.55;;;17.50;;
36651;SDS011;53334;51.976;20.144;2023-11-19T18:36:09;28.48;;;16.08;;
36651;SDS011;53334;51.976;20.144;2023-11-19T18:38:43;24.48;;;16.60;;
36651;SDS011;53334;51.976;20.144;2023-11-19T18:41:16;25.67;;;16.42;;
36651;SDS011;53334;51.976;20.144;2023-11-19T18:43:49;24.38;;;16.52;;
36651;SDS011;53334;51.976;20.144;2023-11-19T18:46:23;27.42;;;16.25;;
36651;SDS011;53334;51.976;20.144;2023-11-19T18:48:56;26.25;;;16.05;;
36651;SDS011;53334;51.976;20.144;2023-11-19T18:51:33;23.08;;;13.88;;
36651;SDS011;53334;51.976;20.144;2023-11-19T18:54:06;22.55;;;15.50;;
36651;SDS011;53334;51.976;20.144;2023-11-19T18:56:40;25.08;;;16.02;;
36651;SDS011;53334;51.976;20.144;2023-11-19T18:59:13;25.35;;;14.77;;
36651;SDS011;53334;51.976;20.144;2023-11-19T19:01:46;20.33;;;14.43;;
36651;SDS011;53334;51.976;20.144;2023-11-19T19:04:20;19.48;;;12.98;;
36651;SDS011;53334;51.976;20.144;2023-11-19T19:06:55;25.38;;;13.63;;
36651;SDS011;53334;51.976;20.144;2023-11-19T19:09:29;26.25;;;14.45;;
36651;SDS011;53334;51.976;20.144;2023-11-19T19:12:02;25.63;;;15.55;;
36651;SDS011;53334;51.976;20.144;2023-11-19T19:14:36;17.17;;;12.20;;
36651;SDS011;53334;51.976;20.144;2023-11-19T19:17:09;20.52;;;13.07;;
36651;SDS011;53334;51.976;20.144;2023-11-19T19:19:43;16.75;;;11.38;;
36651;SDS011;53334;51.976;20.144;2023-11-19T19:22:17;19.00;;;11.85;;
36651;SDS011;53334;51.976;20.144;2023-11-19T19:24:50;23.83;;;12.23;;
36651;SDS011;53334;51.976;20.144;2023-11-19T19:27:24;15.05;;;11.73;;
36651;SDS011;53334;51.976;20.144;2023-11-19T19:29:58;18.40;;;11.65;;
36651;SDS011;53334;51.976;20.144;2023-11-19T19:32:31;18.15;;;11.10;;
36651;SDS011;53334;51.976;20.144;2023-11-19T19:35:05;16.52;;;11.45;;
36651;SDS011;53334;51.976;20.144;2023-11-19T19:37:41;18.75;;;11.38;;
36651;SDS011;53334;51.976;20.144;2023-11-19T19:40:16;15.50;;;11.70;;
36651;SDS011;53334;51.976;20.144;2023-11-19T19:42:52;22.67;;;11.60;;
36651;SDS011;53334;51.976;20.144;2023-11-19T19:45:26;20.05;;;12.23;;
36651;SDS011;53334;51.976;20.144;2023-11-19T19:48:02;15.80;;;10.48;;
36651;SDS011;53334;51.976;20.144;2023-11-19T19:50:36;16.05;;;11.77;;
36651;SDS011;53334;51.976;20.144;2023-11-19T19:53:10;18.92;;;10.82;;
36651;SDS011;53334;51.976;20.144;2023-11-19T19:55:43;14.07;;;10.45;;
36651;SDS011;53334;51.976;20.144;2023-11-19T19:58:16;20.08;;;11.85;;
36651;SDS011;53334;51.976;20.144;2023-11-19T20:00:49;13.98;;;10.25;;
36651;SDS011;53334;51.976;20.144;2023-11-19T20:03:23;12.73;;;9.40;;
36651;SDS011;53334;51.976;20.144;2023-11-19T20:05:57;14.95;;;9.85;;
36651;SDS011;53334;51.976;20.144;2023-11-19T20:08:31;18.73;;;10.88;;
36651;SDS011;53334;51.976;20.144;2023-11-19T20:11:04;13.35;;;10.10;;
36651;SDS011;53334;51.976;20.144;2023-11-19T20:13:40;13.75;;;9.23;;
36651;SDS011;53334;51.976;20.144;2023-11-19T20:16:13;14.73;;;10.50;;
36651;SDS011;53334;51.976;20.144;2023-11-19T20:18:47;17.38;;;9.75;;
36651;SDS011;53334;51.976;20.144;2023-11-19T20:21:20;12.65;;;10.20;;
36651;SDS011;53334;51.976;20.144;2023-11-19T20:23:54;17.42;;;10.25;;
36651;SDS011;53334;51.976;20.144;2023-11-19T20:26:29;12.73;;;10.27;;
36651;SDS011;53334;51.976;20.144;2023-11-19T20:29:02;15.73;;;10.48;;
36651;SDS011;53334;51.976;20.144;2023-11-19T20:31:39;13.23;;;10.18;;
36651;SDS011;53334;51.976;20.144;2023-11-19T20:34:13;19.20;;;10.35;;
36651;SDS011;53334;51.976;20.144;2023-11-19T20:36:46;16.77;;;10.40;;
36651;SDS011;53334;51.976;20.144;2023-11-19T20:39:20;23.33;;;10.27;;
36651;SDS011;53334;51.976;20.144;2023-11-19T20:41:53;14.45;;;10.52;;
36651;SDS011;53334;51.976;20.144;2023-11-19T20:44:27;13.13;;;9.73;;
36651;SDS011;53334;51.976;20.144;2023-11-19T20:47:00;15.63;;;9.88;;
36651;SDS011;53334;51.976;20.144;2023-11-19T20:49:36;16.30;;;10.13;;
36651;SDS011;53334;51.976;20.144;2023-11-19T20:52:09;21.02;;;9.85;;
36651;SDS011;53334;51.976;20.144;2023-11-19T20:54:43;15.82;;;9.90;;
36651;SDS011;53334;51.976;20.144;2023-11-19T20:57:17;17.55;;;9.82;;
36651;SDS011;53334;51.976;20.144;2023-11-19T20:59:51;14.18;;;9.40;;
36651;SDS011;53334;51.976;20.144;2023-11-19T21:02:25;17.35;;;9.80;;
36651;SDS011;53334;51.976;20.144;2023-11-19T21:04:59;16.00;;;9.52;;
36651;SDS011;53334;51.976;20.144;2023-11-19T21:07:33;12.55;;;8.70;;
36651;SDS011;53334;51.976;20.144;2023-11-19T21:10:08;16.77;;;8.98;;
36651;SDS011;53334;51.976;20.144;2023-11-19T21:12:43;11.73;;;9.35;;
36651;SDS011;53334;51.976;20.144;2023-11-19T21:15:18;23.45;;;9.80;;
36651;SDS011;53334;51.976;20.144;2023-11-19T21:17:51;8.75;;;7.82;;
36651;SDS011;53334;51.976;20.144;2023-11-19T21:20:25;14.13;;;8.70;;
36651;SDS011;53334;51.976;20.144;2023-11-19T21:22:58;12.70;;;9.60;;
36651;SDS011;53334;51.976;20.144;2023-11-19T21:25:33;12.52;;;8.63;;
36651;SDS011;53334;51.976;20.144;2023-11-19T21:28:06;14.82;;;8.75;;
36651;SDS011;53334;51.976;20.144;2023-11-19T21:30:39;11.05;;;8.32;;
36651;SDS011;53334;51.976;20.144;2023-11-19T21:33:12;14.90;;;8.68;;
36651;SDS011;53334;51.976;20.144;2023-11-19T21:35:46;12.70;;;9.00;;
36651;SDS011;53334;51.976;20.144;2023-11-19T21:38:19;12.10;;;8.65;;
36651;SDS011;53334;51.976;20.144;2023-11-19T21:40:55;14.50;;;8.98;;
36651;SDS011;53334;51.976;20.144;2023-11-19T21:43:28;13.60;;;7.93;;
36651;SDS011;53334;51.976;20.144;2023-11-19T21:46:01;11.73;;;8.60;;
36651;SDS011;53334;51.976;20.144;2023-11-19T21:48:36;12.55;;;8.25;;
36651;SDS011;53334;51.976;20.144;2023-11-19T21:51:09;9.77;;;7.82;;
36651;SDS011;53334;51.976;20.144;2023-11-19T21:53:42;12.93;;;8.27;;
36651;SDS011;53334;51.976;20.144;2023-11-19T21:56:17;12.07;;;8.23;;
36651;SDS011;53334;51.976;20.144;2023-11-19T21:58:50;9.55;;;8.48;;
36651;SDS011;53334;51.976;20.144;2023-11-19T22:01:23;10.05;;;8.20;;
36651;SDS011;53334;51.976;20.144;2023-11-19T22:03:56;14.18;;;7.35;;
36651;SDS011;53334;51.976;20.144;2023-11-19T22:06:30;12.63;;;8.20;;
36651;SDS011;53334;51.976;20.144;2023-11-19T22:11:40;8.80;;;6.75;;
36651;SDS011;53334;51.976;20.144;2023-11-19T22:14:14;9.40;;;6.97;;
36651;SDS011;53334;51.976;20.144;2023-11-19T22:16:48;9.85;;;6.88;;
36651;SDS011;53334;51.976;20.144;2023-11-19T22:19:22;7.50;;;6.45;;
36651;SDS011;53334;51.976;20.144;2023-11-19T22:21:55;9.85;;;6.75;;
36651;SDS011;53334;51.976;20.144;2023-11-19T22:24:29;8.95;;;7.50;;
36651;SDS011;53334;51.976;20.144;2023-11-19T22:27:03;9.90;;;7.68;;
36651;SDS011;53334;51.976;20.144;2023-11-19T22:29:37;10.77;;;7.63;;
36651;SDS011;53334;51.976;20.144;2023-11-19T22:32:10;13.02;;;7.72;;
36651;SDS011;53334;51.976;20.144;2023-11-19T22:35:03;8.93;;;6.57;;
36651;SDS011;53334;51.976;20.144;2023-11-19T22:37:37;12.65;;;7.68;;
36651;SDS011;53334;51.976;20.144;2023-11-19T22:40:10;7.55;;;5.68;;
36651;SDS011;53334;51.976;20.144;2023-11-19T22:42:45;8.85;;;6.72;;
36651;SDS011;53334;51.976;20.144;2023-11-19T22:45:19;9.00;;;6.78;;
36651;SDS011;53334;51.976;20.144;2023-11-19T22:47:52;9.13;;;7.30;;
36651;SDS011;53334;51.976;20.144;2023-11-19T22:50:25;11.48;;;7.13;;
36651;SDS011;53334;51.976;20.144;2023-11-19T22:52:58;8.82;;;6.85;;
36651;SDS011;53334;51.976;20.144;2023-11-19T22:55:31;9.10;;;7.05;;